createdAt,value
2019-05-15T00:01:58.423Z,2.60
2019-05-15T00:06:52.555Z,2.63
2019-05-15T00:11:48.174Z,2.60
2019-05-15T00:16:42.073Z,2.50
2019-05-15T00:21:38.069Z,2.77
2019-05-15T00:26:31.293Z,2.70
2019-05-15T00:31:25.106Z,2.20
2019-05-15T00:36:19.296Z,2.50
2019-05-15T00:41:13.440Z,2.37
2019-05-15T00:46:09.235Z,2.50
2019-05-15T00:51:02.854Z,2.23
2019-05-15T00:55:58.080Z,2.20
2019-05-15T01:00:52.041Z,2.33
2019-05-15T01:05:47.856Z,2.10
2019-05-15T01:10:41.231Z,2.30
2019-05-15T01:15:34.771Z,2.40
2019-05-15T01:20:29.469Z,2.43
2019-05-15T01:25:23.443Z,2.33
2019-05-15T01:30:18.038Z,2.30
2019-05-15T01:35:13.937Z,2.20
2019-05-15T01:40:08.828Z,2.20
2019-05-15T01:45:03.182Z,2.23
2019-05-15T01:49:58.280Z,2.30
2019-05-15T01:54:52.188Z,2.27
2019-05-15T01:59:56.516Z,2.30
2019-05-15T02:04:41.831Z,2.07
2019-05-15T02:09:35.702Z,2.57
2019-05-15T02:14:29.453Z,2.60
2019-05-15T02:19:23.299Z,2.70
2019-05-15T02:24:18.847Z,2.53
2019-05-15T02:29:14.533Z,2.30
2019-05-15T02:34:10.277Z,2.50
2019-05-15T02:39:08.696Z,2.40
2019-05-15T02:44:01.639Z,2.33
2019-05-15T02:48:55.822Z,2.70
2019-05-15T02:53:50.399Z,2.30
2019-05-15T02:58:44.275Z,2.57
2019-05-15T03:03:38.951Z,2.33
2019-05-15T03:08:32.933Z,2.33
2019-05-15T03:13:29.720Z,2.20
2019-05-15T03:18:22.616Z,2.20
2019-05-15T03:23:19.537Z,2.70
2019-05-15T03:28:12.379Z,2.27
2019-05-15T03:33:15.793Z,2.40
2019-05-15T03:38:01.682Z,2.57
2019-05-15T03:42:58.987Z,2.50
2019-05-15T03:47:51.447Z,2.57
2019-05-15T03:52:45.216Z,2.33
2019-05-15T03:57:40.300Z,2.63
2019-05-15T04:02:34.329Z,2.13
2019-05-15T04:07:29.304Z,2.43
2019-05-15T04:12:23.835Z,2.60
2019-05-15T04:17:19.787Z,2.57
2019-05-15T04:22:13.898Z,2.87
2019-05-15T04:27:10.675Z,3.07
2019-05-15T04:32:05.975Z,3.17
2019-05-15T04:36:59.717Z,3.10
2019-05-15T04:41:53.705Z,2.83
2019-05-15T04:46:49.805Z,2.60
2019-05-15T04:51:43.355Z,3.10
2019-05-15T04:56:39.995Z,3.00
2019-05-15T05:01:32.767Z,2.47
2019-05-15T05:06:29.464Z,3.30
2019-05-15T05:11:24.122Z,2.77
2019-05-15T05:16:19.137Z,3.00
2019-05-15T05:21:13.761Z,2.97
2019-05-15T05:26:10.890Z,2.90
2019-05-15T05:31:03.820Z,2.80
2019-05-15T05:35:58.396Z,2.80
2019-05-15T05:40:52.699Z,2.80
2019-05-15T05:45:48.881Z,2.80
2019-05-15T05:50:44.371Z,2.90
2019-05-15T05:55:38.988Z,2.70
2019-05-15T06:00:58.721Z,2.70
2019-05-15T06:05:52.659Z,2.57
2019-05-15T06:10:49.205Z,2.40
2019-05-15T06:15:42.611Z,2.53
2019-05-15T06:20:36.619Z,2.03
2019-05-15T06:25:31.416Z,1.60
2019-05-15T06:30:30.820Z,1.50
2019-05-15T06:35:24.643Z,1.60
2019-05-15T06:40:21.582Z,1.43
2019-05-15T06:45:15.689Z,1.20
2019-05-15T06:50:10.383Z,1.43
2019-05-15T06:55:04.299Z,1.40
2019-05-15T06:59:58.308Z,1.17
2019-05-15T07:04:52.359Z,1.20
2019-05-15T07:09:48.465Z,1.00
2019-05-15T07:14:41.898Z,1.00
2019-05-15T07:19:35.879Z,0.80
2019-05-15T07:24:29.970Z,1.07
2019-05-15T07:29:23.955Z,0.90
2019-05-15T07:34:18.771Z,1.07
2019-05-15T07:39:13.079Z,1.00
2019-05-15T07:44:07.900Z,1.20
2019-05-15T07:49:01.870Z,0.70
2019-05-15T07:53:58.238Z,0.90
2019-05-15T07:58:52.954Z,1.00
2019-05-15T08:03:56.591Z,1.20
2019-05-15T08:08:42.710Z,0.80
2019-05-15T08:13:38.391Z,1.10
2019-05-15T08:18:32.833Z,0.83
2019-05-15T08:23:29.419Z,0.80
2019-05-15T08:28:23.701Z,0.90
2019-05-15T08:33:17.974Z,1.20
2019-05-15T08:38:14.218Z,1.00
2019-05-15T08:43:11.380Z,1.00
2019-05-15T08:48:03.832Z,1.40
2019-05-15T08:52:58.088Z,0.90
2019-05-15T08:57:55.701Z,1.37
2019-05-15T09:02:48.898Z,0.77
2019-05-15T09:07:44.037Z,0.80
2019-05-15T09:12:38.823Z,0.83
2019-05-15T09:17:32.959Z,1.13
2019-05-15T09:22:29.162Z,1.00
2019-05-15T09:27:23.122Z,1.00
2019-05-15T09:32:19.191Z,0.70
2019-05-15T09:37:13.087Z,0.90
2019-05-15T09:42:08.476Z,1.10
2019-05-15T09:47:02.472Z,1.10
2019-05-15T09:51:58.592Z,0.60
2019-05-15T09:56:52.057Z,1.13
2019-05-15T10:01:48.116Z,1.07
2019-05-15T10:06:41.569Z,1.00
2019-05-15T10:11:38.107Z,2.20
2019-05-15T10:16:31.735Z,1.40
2019-05-15T10:21:31.505Z,1.03
2019-05-15T10:26:22.087Z,0.93
2019-05-15T10:31:16.041Z,0.90
2019-05-15T10:36:10.268Z,1.03
2019-05-15T10:41:11.274Z,1.10
2019-05-15T10:46:01.665Z,1.63
2019-05-15T10:51:01.422Z,1.23
2019-05-15T10:55:51.692Z,1.50
2019-05-15T11:00:49.253Z,1.40
2019-05-15T11:05:45.827Z,1.33
2019-05-15T11:10:41.967Z,1.80
2019-05-15T11:15:34.403Z,1.27
2019-05-15T11:20:28.478Z,1.40
2019-05-15T11:25:22.688Z,1.30
2019-05-15T11:30:19.084Z,1.67
2019-05-15T11:35:14.169Z,1.30
2019-05-15T11:40:10.254Z,0.97
2019-05-15T11:45:05.079Z,2.27
2019-05-15T11:49:59.123Z,1.80
2019-05-15T11:54:53.145Z,1.00
2019-05-15T11:59:54.872Z,1.03
2019-05-15T12:04:43.233Z,1.23
2019-05-15T12:09:38.713Z,1.00
2019-05-15T12:14:33.801Z,1.30
2019-05-15T12:19:29.213Z,0.90
2019-05-15T12:24:31.257Z,0.90
2019-05-15T12:29:19.972Z,1.23
2019-05-15T12:34:14.033Z,1.20
2019-05-15T12:39:12.661Z,1.17
2019-05-15T13:03:53.063Z,1.40
2019-05-15T13:08:49.071Z,0.90
2019-05-15T13:13:43.868Z,1.07
2019-05-15T13:18:38.772Z,1.10
2019-05-15T13:23:32.957Z,1.10
2019-05-15T13:28:29.021Z,1.10
2019-05-15T13:33:22.517Z,1.10
2019-05-15T13:38:18.026Z,0.70
2019-05-15T13:43:12.134Z,1.20
2019-05-15T13:48:08.150Z,1.50
2019-05-15T13:53:01.985Z,0.93
2019-05-15T13:57:57.989Z,0.90
2019-05-15T14:02:52.193Z,0.90
2019-05-15T14:07:50.612Z,1.10
2019-05-15T14:12:42.562Z,1.70
2019-05-15T14:17:37.667Z,0.93
2019-05-15T14:22:31.522Z,1.10
2019-05-15T14:27:25.757Z,1.10
2019-05-15T14:32:34.070Z,1.20
2019-05-15T14:37:15.356Z,0.97
2019-05-15T14:42:09.352Z,1.10
2019-05-15T14:47:03.232Z,1.00
2019-05-15T14:52:05.635Z,0.87
2019-05-15T14:56:53.717Z,1.17
2019-05-15T15:01:48.766Z,1.37
2019-05-15T15:06:43.930Z,1.20
2019-05-15T15:11:38.605Z,1.10
2019-05-15T15:16:33.650Z,1.30
2019-05-15T15:21:29.187Z,1.20
2019-05-15T15:26:23.452Z,1.10
2019-05-15T15:31:19.095Z,1.30
2019-05-15T15:36:13.067Z,1.27
2019-05-15T15:41:08.553Z,1.10
2019-05-15T15:46:02.411Z,1.43
2019-05-15T15:50:58.842Z,1.00
2019-05-15T15:55:52.750Z,1.03
2019-05-15T16:00:48.868Z,1.40
2019-05-15T16:05:42.295Z,1.10
2019-05-15T16:10:37.994Z,0.97
2019-05-15T16:15:31.879Z,1.20
2019-05-15T16:20:28.088Z,1.27
2019-05-15T16:25:21.791Z,1.50
2019-05-15T16:30:18.783Z,1.30
2019-05-15T16:35:12.530Z,1.80
2019-05-15T16:40:06.451Z,1.40
2019-05-15T16:45:00.566Z,1.20
2019-05-15T16:49:54.753Z,1.40
2019-05-15T16:54:49.093Z,1.70
2019-05-15T16:59:43.068Z,1.87
2019-05-15T17:04:38.223Z,1.13
2019-05-15T17:09:32.083Z,1.80
2019-05-15T17:14:28.608Z,1.33
2019-05-15T17:19:21.828Z,1.50
2019-05-15T17:24:15.667Z,1.80
2019-05-15T17:29:09.640Z,1.20
2019-05-15T17:34:03.868Z,1.87
2019-05-15T17:38:58.130Z,1.60
2019-05-15T17:43:52.130Z,1.63
2019-05-15T17:48:54.153Z,1.40
2019-05-15T17:53:41.960Z,1.57
2019-05-15T17:58:37.973Z,1.60
2019-05-15T18:03:31.858Z,1.40
2019-05-15T18:08:28.171Z,1.50
2019-05-15T18:13:22.108Z,1.30
2019-05-15T18:18:16.107Z,1.37
2019-05-15T18:23:12.035Z,1.03
2019-05-15T18:28:08.324Z,1.40
2019-05-15T18:33:01.945Z,1.30
2019-05-15T18:37:55.957Z,1.73
2019-05-15T18:42:49.901Z,1.23
2019-05-15T18:47:43.950Z,1.63
2019-05-15T18:52:38.406Z,1.23
2019-05-15T18:57:32.278Z,1.27
2019-05-15T19:02:28.776Z,1.90
2019-05-15T19:07:23.469Z,1.60
2019-05-15T19:12:17.993Z,1.40
2019-05-15T19:17:12.117Z,1.20
2019-05-15T19:22:07.884Z,1.50
2019-05-15T19:27:01.864Z,1.57
2019-05-15T19:31:56.315Z,1.57
2019-05-15T19:37:02.395Z,1.47
2019-05-15T19:41:58.317Z,1.90
2019-05-15T19:46:52.560Z,1.20
2019-05-15T19:51:48.500Z,1.97
2019-05-15T19:56:42.268Z,1.60
2019-05-15T20:01:38.231Z,1.40
2019-05-15T20:06:32.130Z,1.50
2019-05-15T20:11:27.890Z,1.70
2019-05-15T20:16:21.822Z,1.80
2019-05-15T20:21:17.789Z,1.70
2019-05-15T20:26:11.523Z,1.70
2019-05-15T20:31:07.768Z,1.60
2019-05-15T20:36:01.078Z,1.63
2019-05-15T20:40:54.991Z,1.40
2019-05-15T20:45:48.990Z,1.70
2019-05-15T20:50:43.061Z,1.97
2019-05-15T20:55:38.059Z,1.37
2019-05-15T21:00:32.161Z,1.80
2019-05-15T21:05:27.912Z,1.67
2019-05-15T21:10:22.110Z,1.83
2019-05-15T21:15:16.270Z,1.57
2019-05-15T21:20:10.571Z,1.73
2019-05-15T21:25:04.852Z,4.40
2019-05-15T21:29:59.306Z,2.00
2019-05-15T21:34:55.110Z,1.80
2019-05-15T21:39:48.978Z,1.90
2019-05-15T21:44:44.077Z,1.70
2019-05-15T21:49:38.832Z,1.73
2019-05-15T21:54:33.563Z,1.97
2019-05-15T21:59:27.895Z,1.63
2019-05-15T22:04:21.834Z,1.90
2019-05-15T22:09:18.394Z,1.73
2019-05-15T22:14:12.445Z,1.60
2019-05-15T22:19:06.672Z,1.50
2019-05-15T22:24:00.657Z,1.77
2019-05-15T22:28:54.542Z,1.60
2019-05-15T22:33:48.564Z,1.70
2019-05-15T22:38:42.530Z,1.63
2019-05-15T22:43:36.418Z,1.80
2019-05-15T22:48:30.523Z,1.53
2019-05-15T22:53:24.491Z,1.60
2019-05-15T22:58:18.614Z,1.77
2019-05-15T23:03:12.399Z,1.60
2019-05-15T23:08:06.333Z,1.80
2019-05-15T23:13:00.248Z,1.70
2019-05-15T23:17:54.281Z,1.63
2019-05-15T23:22:48.266Z,1.50
2019-05-15T23:27:42.268Z,2.00
2019-05-15T23:32:38.559Z,2.00
2019-05-15T23:37:32.698Z,1.60
2019-05-15T23:42:29.038Z,1.70
2019-05-15T23:47:22.340Z,1.87
2019-05-15T23:52:16.412Z,1.97
2019-05-15T23:57:10.486Z,1.83
